To NAV CANADA Home Page Login to a new session Search on AWWS site Feedback and Comments Disclaimer Vers la page française équivalente Tips FAQ What's new on the site To the Forecasts and Observations / NOTAM section To "File a Flight Plan" website Publications and other links Update of the User's profile FIC Telephone Numbers My Weather Data Folder Route Weather Data Regional Weather Data Local Weather Data To the Forecasts and Observations / NOTAM section
Request Generated 07/29/2015 at 15:53:02 UTC . Weather information available at that time is displayed.

METAR/TAF

GOOSE BAY/NL    

METAR CYYR 291500Z 07007KT 15SM FEW025 SCT034 BKN058 BKN100 19/15 A2994 RMK CU2SC1SC2AC1 SLP140=
SPECI CYYR 291443Z 08007KT 15SM FEW025 SCT034 BKN058 BKN100 18/14 A2995 RMK CU2SC1SC2AC1 SLP142=
METAR CYYR 291400Z 07005KT 15SM -SHRA SCT025 BKN033 BKN060 BKN100 18/15 A2996 RMK CU3SC2SC1AC1 SLP145=
SPECI CYYR 291342Z 04007KT 15SM -SHRA FEW008 SCT025 BKN033 BKN100 18/15 A2996 RMK SF1SC3SC3AC1 SLP145=
METAR CYYR 291300Z 04005KT 15SM FEW005 SCT018 OVC025 17/15 A2996 RMK SF1SC2SC5 SLP147=

TAF CYYR 291130Z 2912/3012 06008KT P6SM FEW012 SCT030 OVC080 TEMPO
2912/2921 P6SM -SHRA SCT012 OVC030
FM292100 06008KT P6SM -SHRA BKN040 OVC080 PROB30 2922/3002
VRB15G25KT 2SM TSRA BR BKN020 OVC030CB
FM300300 06005KT P6SM OVC030 TEMPO 3008/3012 OVC020 PROB30
3009/3012 2SM BR SCT004 OVC008
RMK NXT FCST BY 291800Z=
Your time UTC time
Weather data provided by Environment Canada and NAV CANADA